Terminal Aerodrome Forecast
Issued by NWS Duluth, MN

Home | Current Version | Previous Version | Text Only | Print | Product List | Glossary On
Versions: 1 2 3 4 5 6 7 8 9 10 11 12 13 14 15 16 17 18 19 20 21 22 23 24 25 26
000
FTUS43 KDLH 161130
TAFINL
TAF
KINL 161130Z 1612/1712 10008KT P6SM OVC013
     FM161800 13009KT P6SM OVC015
     FM162100 14010G17KT P6SM OVC015
     FM170100 14012G23KT P6SM VCSH OVC015
     FM170600 16013G26KT P6SM -SN OVC015=

USA.gov is the U.S. government's official web portal to all federal, state and local government web resources and services.